createdAt,value
2019-02-17T00:01:03.045Z,79.92
2019-02-17T00:03:28.810Z,79.60
2019-02-17T00:05:54.558Z,79.49
2019-02-17T00:08:20.323Z,79.63
2019-02-17T00:10:46.064Z,79.90
2019-02-17T00:13:11.825Z,80.05
2019-02-17T00:15:37.569Z,79.74
2019-02-17T00:18:03.333Z,80.05
2019-02-17T00:20:29.092Z,79.95
2019-02-17T00:22:54.856Z,79.81
2019-02-17T00:25:20.685Z,79.96
2019-02-17T00:27:46.465Z,79.91
2019-02-17T00:30:12.208Z,80.14
2019-02-17T00:32:38.166Z,79.92
2019-02-17T00:35:05.320Z,80.11
2019-02-17T00:37:31.199Z,80.17
2019-02-17T00:39:56.987Z,80.17
2019-02-17T00:42:22.934Z,80.11
2019-02-17T00:44:49.507Z,80.20
2019-02-17T00:47:15.818Z,80.36
2019-02-17T00:49:41.894Z,80.53
2019-02-17T00:52:07.816Z,80.47
2019-02-17T00:54:33.981Z,80.47
2019-02-17T00:57:02.620Z,80.79
2019-02-17T00:59:28.569Z,80.79
2019-02-17T01:01:54.974Z,80.79
2019-02-17T01:04:21.134Z,80.81
2019-02-17T01:06:47.358Z,80.90
2019-02-17T01:09:13.118Z,81.34
2019-02-17T01:11:40.996Z,81.34
2019-02-17T01:14:07.191Z,81.33
2019-02-17T01:16:33.350Z,81.27
2019-02-17T01:18:59.096Z,81.44
2019-02-17T01:21:24.845Z,81.49
2019-02-17T01:23:50.623Z,81.60
2019-02-17T01:26:16.370Z,81.76
2019-02-17T01:28:42.119Z,81.88
2019-02-17T01:31:08.598Z,82.35
2019-02-17T01:33:34.713Z,82.57
2019-02-17T01:36:00.623Z,82.80
2019-02-17T01:38:26.435Z,82.80
2019-02-17T01:40:52.427Z,82.35
2019-02-17T01:43:18.332Z,82.25
2019-02-17T01:45:44.260Z,82.25
2019-02-17T01:48:10.137Z,82.74
2019-02-17T01:50:36.020Z,82.96
2019-02-17T01:53:01.930Z,82.89
2019-02-17T01:55:27.995Z,83.01
2019-02-17T01:57:53.744Z,83.18
2019-02-17T02:00:19.504Z,83.44
2019-02-17T02:02:45.247Z,83.58
2019-02-17T02:05:11.007Z,83.65
2019-02-17T02:07:36.753Z,83.43
2019-02-17T02:10:04.712Z,83.33
2019-02-17T02:12:30.471Z,83.23
2019-02-17T02:14:56.255Z,83.02
2019-02-17T02:17:22.005Z,83.29
2019-02-17T02:19:47.755Z,83.42
2019-02-17T02:22:13.512Z,83.73
2019-02-17T02:24:39.263Z,83.70
2019-02-17T02:27:05.020Z,83.82
2019-02-17T02:29:40.515Z,83.88
2019-02-17T02:31:58.470Z,83.35
2019-02-17T02:34:24.192Z,83.35
2019-02-17T02:36:49.952Z,83.61
2019-02-17T02:39:15.705Z,83.77
2019-02-17T02:41:41.489Z,84.10
2019-02-17T02:44:07.236Z,84.24
2019-02-17T02:46:33.000Z,84.29
2019-02-17T02:48:58.746Z,84.29
2019-02-17T02:51:24.512Z,84.30
2019-02-17T02:53:50.254Z,84.25
2019-02-17T02:56:16.013Z,84.10
2019-02-17T02:58:41.756Z,84.14
2019-02-17T03:01:08.624Z,84.15
2019-02-17T03:03:34.381Z,84.14
2019-02-17T03:06:02.041Z,84.04
2019-02-17T03:08:27.795Z,84.22
2019-02-17T03:10:53.576Z,84.09
2019-02-17T03:13:19.325Z,84.20
2019-02-17T03:15:45.072Z,84.21
2019-02-17T03:18:10.836Z,84.15
2019-02-17T03:20:36.588Z,84.04
2019-02-17T03:23:02.340Z,84.01
2019-02-17T03:25:28.083Z,83.94
2019-02-17T03:27:53.845Z,83.91
2019-02-17T03:30:19.596Z,83.82
2019-02-17T03:32:45.366Z,83.71
2019-02-17T03:35:11.103Z,83.89
2019-02-17T03:37:36.867Z,84.00
2019-02-17T03:40:04.823Z,83.70
2019-02-17T03:42:30.594Z,83.77
2019-02-17T03:44:56.344Z,84.08
2019-02-17T03:47:22.099Z,84.02
2019-02-17T03:49:47.845Z,84.06
2019-02-17T03:52:13.667Z,84.08
2019-02-17T03:54:39.353Z,84.15
2019-02-17T03:57:05.114Z,84.17
2019-02-17T03:59:30.864Z,84.23
2019-02-17T04:01:56.626Z,84.27
2019-02-17T04:04:22.369Z,84.22
2019-02-17T04:06:48.131Z,84.15
2019-02-17T04:09:13.880Z,84.11
2019-02-17T04:11:39.627Z,84.12
2019-02-17T04:14:05.396Z,83.96
2019-02-17T04:16:31.141Z,84.01
2019-02-17T04:18:56.899Z,83.97
2019-02-17T04:21:22.645Z,83.95
2019-02-17T04:23:48.409Z,84.17
2019-02-17T04:26:14.151Z,84.25
2019-02-17T04:28:39.911Z,84.29
2019-02-17T04:31:05.665Z,84.14
2019-02-17T04:33:31.439Z,84.07
2019-02-17T04:35:57.182Z,84.11
2019-02-17T04:38:22.953Z,84.02
2019-02-17T04:40:48.718Z,83.95
2019-02-17T04:43:14.485Z,84.01
2019-02-17T04:45:40.238Z,84.12
2019-02-17T04:48:05.997Z,84.31
2019-02-17T04:50:31.746Z,84.24
2019-02-17T04:52:57.515Z,84.21
2019-02-17T04:55:23.284Z,84.40
2019-02-17T04:57:49.046Z,84.19
2019-02-17T05:00:14.799Z,84.21
2019-02-17T05:02:40.556Z,84.16
2019-02-17T05:05:06.510Z,84.06
2019-02-17T05:07:32.280Z,84.07
2019-02-17T05:09:58.034Z,84.08
2019-02-17T05:12:23.780Z,84.26
2019-02-17T05:14:49.548Z,84.43
2019-02-17T05:17:15.614Z,84.52
2019-02-17T05:19:41.381Z,84.51
2019-02-17T05:22:07.139Z,84.21
2019-02-17T05:24:32.899Z,84.38
2019-02-17T05:26:58.654Z,84.29
2019-02-17T05:29:24.422Z,84.15
2019-02-17T05:31:50.178Z,84.06
2019-02-17T05:34:15.947Z,84.19
2019-02-17T05:36:41.701Z,84.11
2019-02-17T05:39:07.454Z,84.14
2019-02-17T05:41:33.216Z,84.33
2019-02-17T05:43:58.986Z,84.28
2019-02-17T05:46:24.736Z,84.39
2019-02-17T05:48:50.502Z,84.34
2019-02-17T05:51:16.252Z,84.37
2019-02-17T05:53:42.006Z,84.52
2019-02-17T05:56:07.751Z,84.65
2019-02-17T05:58:33.512Z,84.60
2019-02-17T06:01:03.796Z,84.51
2019-02-17T06:03:26.941Z,84.51
2019-02-17T06:05:52.680Z,84.62
2019-02-17T06:08:18.441Z,84.51
2019-02-17T06:10:44.194Z,84.38
2019-02-17T06:13:09.939Z,84.34
2019-02-17T06:15:35.707Z,84.46
2019-02-17T06:18:01.458Z,84.55
2019-02-17T06:20:27.216Z,84.61
2019-02-17T06:22:52.965Z,84.50
2019-02-17T06:25:18.732Z,84.62
2019-02-17T06:27:44.475Z,84.54
2019-02-17T06:30:10.238Z,84.51
2019-02-17T06:32:35.990Z,84.44
2019-02-17T06:35:01.756Z,84.54
2019-02-17T06:37:27.502Z,84.71
2019-02-17T06:39:53.269Z,84.85
2019-02-17T06:42:19.044Z,84.64
2019-02-17T06:44:44.808Z,84.50
2019-02-17T06:47:12.468Z,84.57
2019-02-17T06:49:38.240Z,84.67
2019-02-17T06:52:03.984Z,84.90
2019-02-17T06:54:29.752Z,84.64
2019-02-17T06:56:57.404Z,84.47
2019-02-17T06:59:23.175Z,84.44
2019-02-17T07:01:48.925Z,84.18
2019-02-17T07:04:14.702Z,84.09
2019-02-17T07:06:42.343Z,84.14
2019-02-17T07:09:08.119Z,84.08
2019-02-17T07:11:33.900Z,84.07
2019-02-17T07:13:59.619Z,83.95
2019-02-17T07:16:25.388Z,83.92
2019-02-17T07:18:51.135Z,84.02
2019-02-17T07:21:16.901Z,83.94
2019-02-17T07:23:42.653Z,83.92
2019-02-17T07:26:08.424Z,83.82
2019-02-17T07:28:34.164Z,83.71
2019-02-17T07:30:59.937Z,83.73
2019-02-17T07:33:25.752Z,83.87
2019-02-17T07:35:51.494Z,84.09
2019-02-17T07:38:17.252Z,84.00
2019-02-17T07:40:43.035Z,83.79
2019-02-17T07:43:08.795Z,83.90
2019-02-17T07:45:34.562Z,83.92
2019-02-17T07:48:00.309Z,83.93
2019-02-17T07:50:26.078Z,83.91
2019-02-17T07:52:51.842Z,84.00
2019-02-17T07:55:17.604Z,83.89
2019-02-17T07:57:43.358Z,83.85
2019-02-17T08:00:10.822Z,83.59
2019-02-17T08:02:36.584Z,83.65
2019-02-17T08:05:03.248Z,83.50
2019-02-17T08:07:29.006Z,83.28
2019-02-17T08:09:54.873Z,83.23
2019-02-17T08:12:20.722Z,83.29
2019-02-17T08:14:46.477Z,83.03
2019-02-17T08:17:12.242Z,82.82
2019-02-17T08:19:37.994Z,82.61
2019-02-17T08:22:03.750Z,82.38
2019-02-17T08:24:29.493Z,82.28
2019-02-17T08:26:55.257Z,82.05
2019-02-17T08:29:21.005Z,81.65
2019-02-17T08:31:55.152Z,81.48
2019-02-17T08:34:14.431Z,81.38
2019-02-17T08:36:40.193Z,81.04
2019-02-17T08:39:05.946Z,80.60
2019-02-17T08:41:31.726Z,80.43
2019-02-17T08:43:57.479Z,80.38
2019-02-17T08:46:23.258Z,80.01
2019-02-17T08:48:49.005Z,79.67
2019-02-17T08:51:14.768Z,79.55
2019-02-17T08:53:40.525Z,79.43
2019-02-17T08:56:06.279Z,79.37
2019-02-17T08:58:32.030Z,79.52
2019-02-17T09:00:57.793Z,78.70
2019-02-17T09:03:23.543Z,78.49
2019-02-17T09:05:49.306Z,78.52
2019-02-17T09:08:15.062Z,78.63
2019-02-17T09:10:40.853Z,78.37
2019-02-17T09:13:06.611Z,78.39
2019-02-17T09:15:32.353Z,78.80
2019-02-17T09:17:58.116Z,78.91
2019-02-17T09:20:23.863Z,78.75
2019-02-17T09:22:49.632Z,78.95
2019-02-17T09:25:15.373Z,78.62
2019-02-17T09:27:41.140Z,78.37
2019-02-17T09:30:09.984Z,78.01
2019-02-17T09:32:35.758Z,77.24
2019-02-17T09:35:01.510Z,77.31
2019-02-17T09:37:27.267Z,76.98
2019-02-17T09:39:53.017Z,76.97
2019-02-17T09:42:18.796Z,75.89
2019-02-17T09:44:44.540Z,75.97
2019-02-17T09:47:10.305Z,76.34
2019-02-17T09:49:36.750Z,76.74
2019-02-17T09:52:02.487Z,76.13
2019-02-17T09:54:28.242Z,75.81
2019-02-17T09:56:55.304Z,75.14
2019-02-17T09:59:21.060Z,74.85
2019-02-17T10:01:46.831Z,74.12
2019-02-17T10:04:13.176Z,74.20
2019-02-17T10:06:38.953Z,74.69
2019-02-17T10:09:04.804Z,74.35
2019-02-17T10:11:31.789Z,73.95
2019-02-17T10:13:57.617Z,74.35
2019-02-17T10:16:23.375Z,74.31
2019-02-17T10:18:49.143Z,74.17
2019-02-17T10:21:14.893Z,74.20
2019-02-17T10:23:40.651Z,73.55
2019-02-17T10:26:06.534Z,73.50
2019-02-17T10:28:41.873Z,73.17
2019-02-17T10:30:59.954Z,73.91
2019-02-17T10:33:25.729Z,71.67
2019-02-17T10:35:51.480Z,72.64
2019-02-17T10:38:17.245Z,72.11
2019-02-17T10:40:43.004Z,70.80
2019-02-17T10:43:09.069Z,71.46
2019-02-17T10:45:34.832Z,71.08
2019-02-17T10:48:00.651Z,70.88
2019-02-17T10:50:26.404Z,71.63
2019-02-17T10:52:52.199Z,70.75
2019-02-17T10:55:19.934Z,70.66
2019-02-17T10:57:46.350Z,69.96
2019-02-17T11:00:15.716Z,69.63
2019-02-17T11:02:47.043Z,69.32
2019-02-17T11:05:09.839Z,69.28
2019-02-17T11:07:35.609Z,69.18
2019-02-17T11:10:01.567Z,69.68
2019-02-17T11:12:30.043Z,69.25
2019-02-17T11:14:55.906Z,68.44
2019-02-17T11:17:23.765Z,68.83
2019-02-17T11:19:49.501Z,67.42
2019-02-17T11:22:22.901Z,68.32
2019-02-17T11:24:42.973Z,67.87
2019-02-17T11:27:08.776Z,68.43
2019-02-17T11:29:36.476Z,67.67
2019-02-17T11:32:02.275Z,67.49
2019-02-17T11:34:29.005Z,66.81
2019-02-17T11:36:56.354Z,66.61
2019-02-17T11:39:24.523Z,66.94
2019-02-17T11:41:51.115Z,67.06
2019-02-17T11:44:17.031Z,67.15
2019-02-17T11:46:43.078Z,66.99
2019-02-17T11:49:09.923Z,65.91
2019-02-17T11:51:36.454Z,66.59
2019-02-17T11:54:02.421Z,65.65
2019-02-17T11:56:28.170Z,65.57
2019-02-17T11:58:53.951Z,65.41
2019-02-17T12:01:19.707Z,63.84
2019-02-17T12:03:45.479Z,63.99
2019-02-17T12:06:11.233Z,63.81
2019-02-17T12:08:37.006Z,63.63
2019-02-17T12:11:02.936Z,64.19
2019-02-17T12:13:28.750Z,62.18
2019-02-17T12:15:54.540Z,62.22
2019-02-17T12:18:20.331Z,61.46
2019-02-17T12:20:50.776Z,62.27
2019-02-17T12:23:27.277Z,61.51
2019-02-17T12:25:54.928Z,61.66
2019-02-17T12:28:36.363Z,60.92
2019-02-17T12:31:02.191Z,61.27
2019-02-17T12:33:27.949Z,59.61
2019-02-17T12:35:53.716Z,59.60
2019-02-17T12:38:19.643Z,59.34
2019-02-17T12:40:45.427Z,58.50
2019-02-17T12:43:11.179Z,58.02
2019-02-17T12:45:36.975Z,57.23
2019-02-17T12:48:02.984Z,56.74
2019-02-17T12:50:28.770Z,56.59
2019-02-17T12:52:54.568Z,55.81
2019-02-17T12:55:20.334Z,54.38
2019-02-17T12:57:46.097Z,55.20
2019-02-17T13:00:14.958Z,55.11
2019-02-17T13:02:40.701Z,54.68
2019-02-17T13:05:07.565Z,55.30
2019-02-17T13:07:33.316Z,54.94
2019-02-17T13:09:59.085Z,55.34
2019-02-17T13:12:24.838Z,54.45
2019-02-17T13:14:50.606Z,55.15
2019-02-17T13:17:16.354Z,54.34
2019-02-17T13:19:42.124Z,54.30
2019-02-17T13:22:07.866Z,54.36
2019-02-17T13:24:33.628Z,53.78
2019-02-17T13:26:59.377Z,52.93
2019-02-17T13:29:25.169Z,52.75
2019-02-17T13:31:50.946Z,53.00
2019-02-17T13:34:16.697Z,52.91
2019-02-17T13:36:42.527Z,52.29
2019-02-17T13:39:08.276Z,53.06
2019-02-17T13:41:34.057Z,53.25
2019-02-17T13:43:59.820Z,53.18
2019-02-17T13:46:25.808Z,53.24
2019-02-17T13:48:51.638Z,54.51
2019-02-17T13:51:17.582Z,53.42
2019-02-17T13:53:43.338Z,53.17
2019-02-17T13:56:09.097Z,52.27
2019-02-17T13:58:34.923Z,53.24
2019-02-17T14:01:00.690Z,53.04
2019-02-17T14:03:26.436Z,53.29
2019-02-17T14:05:52.220Z,53.01
2019-02-17T14:08:17.958Z,53.44
2019-02-17T14:10:43.723Z,54.90
2019-02-17T14:13:09.473Z,53.96
2019-02-17T14:15:35.237Z,55.02
2019-02-17T14:18:00.985Z,54.08
2019-02-17T14:20:26.800Z,53.56
2019-02-17T14:22:52.598Z,55.51
2019-02-17T14:25:18.366Z,55.35
2019-02-17T14:27:44.116Z,55.45
2019-02-17T14:30:13.952Z,56.20
2019-02-17T14:32:39.717Z,56.33
2019-02-17T14:35:05.566Z,57.03
2019-02-17T14:37:31.409Z,56.31
2019-02-17T14:39:57.157Z,57.33
2019-02-17T14:42:22.928Z,56.91
2019-02-17T14:44:48.879Z,56.93
2019-02-17T14:47:14.648Z,56.78
2019-02-17T14:49:40.401Z,56.89
2019-02-17T14:52:06.259Z,57.55
2019-02-17T14:54:32.011Z,56.89
2019-02-17T14:56:57.778Z,56.94
2019-02-17T14:59:23.526Z,55.70
2019-02-17T15:01:49.304Z,55.38
2019-02-17T15:04:15.054Z,56.25
2019-02-17T15:06:40.818Z,55.23
2019-02-17T15:09:06.564Z,55.12
2019-02-17T15:11:32.335Z,56.00
2019-02-17T15:13:58.085Z,56.20
2019-02-17T15:16:23.861Z,56.55
2019-02-17T15:18:49.607Z,56.99
2019-02-17T15:21:15.394Z,57.20
2019-02-17T15:23:41.142Z,57.44
2019-02-17T15:26:06.905Z,57.69
2019-02-17T15:28:32.653Z,58.29
2019-02-17T15:30:58.405Z,58.76
2019-02-17T15:33:24.171Z,58.86
2019-02-17T15:35:49.944Z,59.49
2019-02-17T15:38:15.705Z,59.71
2019-02-17T15:40:41.486Z,60.09
2019-02-17T15:43:07.264Z,60.70
2019-02-17T15:45:33.016Z,61.28
2019-02-17T15:47:58.839Z,61.60
2019-02-17T15:50:24.584Z,62.00
2019-02-17T15:52:50.347Z,62.59
2019-02-17T15:55:16.107Z,62.83
2019-02-17T15:57:41.860Z,63.40
2019-02-17T16:00:10.110Z,63.60
2019-02-17T16:02:35.889Z,63.94
2019-02-17T16:05:02.048Z,64.25
2019-02-17T16:07:27.822Z,64.56
2019-02-17T16:09:53.592Z,65.05
2019-02-17T16:12:19.372Z,65.43
2019-02-17T16:14:45.128Z,65.70
2019-02-17T16:17:10.895Z,65.91
2019-02-17T16:19:36.659Z,66.25
2019-02-17T16:22:02.427Z,66.41
2019-02-17T16:24:28.168Z,66.49
2019-02-17T16:26:53.961Z,66.77
2019-02-17T16:29:19.711Z,66.76
2019-02-17T16:31:45.461Z,67.00
2019-02-17T16:34:11.957Z,67.24
2019-02-17T16:36:37.723Z,67.21
2019-02-17T16:39:07.217Z,67.65
2019-02-17T16:41:32.996Z,67.99
2019-02-17T16:43:58.769Z,68.36
2019-02-17T16:46:24.529Z,68.48
2019-02-17T16:48:50.301Z,68.76
2019-02-17T16:51:16.050Z,68.76
2019-02-17T16:53:41.814Z,69.20
2019-02-17T16:56:07.565Z,69.38
2019-02-17T16:58:33.335Z,69.55
2019-02-17T17:00:59.088Z,69.58
2019-02-17T17:03:24.861Z,69.72
2019-02-17T17:05:50.614Z,69.91
2019-02-17T17:08:16.385Z,70.17
2019-02-17T17:10:42.141Z,70.33
2019-02-17T17:13:07.935Z,70.61
2019-02-17T17:15:33.677Z,70.52
2019-02-17T17:17:59.444Z,70.50
2019-02-17T17:20:25.199Z,70.41
2019-02-17T17:22:50.982Z,70.47
2019-02-17T17:25:16.839Z,70.53
2019-02-17T17:27:42.580Z,70.59
2019-02-17T17:30:11.151Z,70.62
2019-02-17T17:32:36.920Z,70.64
2019-02-17T17:35:04.299Z,70.64
2019-02-17T17:37:30.073Z,71.08
2019-02-17T17:39:55.853Z,71.08
2019-02-17T17:42:21.626Z,70.73
2019-02-17T17:44:47.450Z,70.76
2019-02-17T17:47:13.201Z,71.04
2019-02-17T17:49:38.973Z,70.88
2019-02-17T17:52:04.719Z,70.98
2019-02-17T17:54:30.686Z,71.07
2019-02-17T17:56:56.421Z,70.98
2019-02-17T17:59:22.192Z,70.99
2019-02-17T18:01:48.030Z,71.42
2019-02-17T18:04:13.796Z,71.71
2019-02-17T18:06:39.568Z,72.11
2019-02-17T18:09:05.627Z,72.30
2019-02-17T18:11:31.398Z,72.42
2019-02-17T18:13:57.161Z,72.15
2019-02-17T18:16:22.938Z,72.33
2019-02-17T18:18:48.698Z,73.07
2019-02-17T18:21:14.459Z,72.91
2019-02-17T18:23:40.220Z,72.93
2019-02-17T18:26:05.996Z,72.58
2019-02-17T18:28:31.751Z,72.48
2019-02-17T18:30:57.513Z,72.37
2019-02-17T18:33:23.270Z,72.63
2019-02-17T18:35:49.069Z,72.42
2019-02-17T18:38:14.803Z,72.58
2019-02-17T18:40:44.959Z,72.76
2019-02-17T18:43:08.234Z,72.93
2019-02-17T18:45:34.103Z,72.82
2019-02-17T18:47:59.858Z,72.68
2019-02-17T18:50:25.627Z,72.52
2019-02-17T18:52:51.386Z,72.45
2019-02-17T18:55:17.137Z,72.57
2019-02-17T18:57:49.963Z,72.85
2019-02-17T19:00:16.620Z,72.80
2019-02-17T19:02:42.389Z,72.70
2019-02-17T19:05:09.753Z,72.53
2019-02-17T19:07:35.521Z,72.25
2019-02-17T19:10:01.392Z,72.34
2019-02-17T19:12:27.152Z,72.07
2019-02-17T19:14:52.930Z,72.13
2019-02-17T19:17:18.699Z,72.27
2019-02-17T19:19:44.465Z,72.25
2019-02-17T19:22:10.368Z,72.58
2019-02-17T19:24:36.206Z,72.74
2019-02-17T19:27:01.968Z,72.51
2019-02-17T19:29:27.774Z,72.50
2019-02-17T19:31:53.536Z,72.84
2019-02-17T19:34:19.392Z,73.08
2019-02-17T19:36:45.280Z,72.89
2019-02-17T19:39:11.139Z,73.31
2019-02-17T19:41:37.104Z,73.60
2019-02-17T19:44:03.158Z,73.27
2019-02-17T19:46:29.579Z,73.43
2019-02-17T19:48:55.803Z,73.62
2019-02-17T19:51:21.550Z,74.08
2019-02-17T19:53:47.347Z,73.96
2019-02-17T19:56:13.122Z,73.86
2019-02-17T19:58:39.041Z,74.10
2019-02-17T20:01:05.151Z,74.76
2019-02-17T20:03:32.953Z,74.68
2019-02-17T20:06:03.619Z,74.77
2019-02-17T20:08:29.395Z,75.05
2019-02-17T20:10:55.152Z,75.16
2019-02-17T20:13:21.401Z,75.06
2019-02-17T20:15:47.158Z,75.05
2019-02-17T20:18:12.919Z,75.29
2019-02-17T20:20:38.683Z,75.34
2019-02-17T20:23:04.455Z,75.13
2019-02-17T20:25:30.203Z,75.94
2019-02-17T20:27:55.959Z,75.64
2019-02-17T20:30:21.722Z,75.81
2019-02-17T20:32:47.477Z,76.35
2019-02-17T20:35:13.242Z,76.29
2019-02-17T20:37:39.007Z,76.19
2019-02-17T20:40:12.667Z,76.04
2019-02-17T20:42:38.448Z,75.84
2019-02-17T20:45:09.210Z,76.67
2019-02-17T20:47:34.967Z,76.72
2019-02-17T20:50:00.728Z,76.80
2019-02-17T20:52:26.485Z,77.26
2019-02-17T20:54:52.258Z,77.29
2019-02-17T20:57:18.020Z,77.23
2019-02-17T20:59:44.001Z,77.27
2019-02-17T21:02:09.751Z,77.12
2019-02-17T21:04:35.513Z,77.07
2019-02-17T21:07:01.271Z,77.08
2019-02-17T21:09:27.133Z,77.24
2019-02-17T21:11:52.895Z,77.35
2019-02-17T21:14:18.670Z,77.37
2019-02-17T21:16:44.425Z,77.62
2019-02-17T21:19:10.188Z,77.82
2019-02-17T21:21:36.062Z,77.92
2019-02-17T21:24:01.819Z,77.77
2019-02-17T21:26:27.569Z,78.05
2019-02-17T21:28:53.320Z,78.11
2019-02-17T21:31:19.089Z,78.23
2019-02-17T21:33:44.848Z,78.71
2019-02-17T21:36:10.621Z,78.71
2019-02-17T21:38:36.373Z,78.67
2019-02-17T21:41:09.013Z,78.80
2019-02-17T21:43:29.807Z,79.15
2019-02-17T21:45:55.880Z,79.46
2019-02-17T21:48:21.639Z,79.58
2019-02-17T21:50:47.403Z,79.59
2019-02-17T21:53:20.321Z,79.89
2019-02-17T21:55:40.844Z,80.78
2019-02-17T21:58:06.583Z,80.37
2019-02-17T22:00:32.348Z,80.33
2019-02-17T22:02:58.109Z,80.81
2019-02-17T22:05:23.875Z,81.21
2019-02-17T22:07:49.631Z,81.01
2019-02-17T22:10:16.400Z,81.41
2019-02-17T22:12:42.147Z,81.14
2019-02-17T22:15:13.408Z,81.54
2019-02-17T22:17:39.161Z,81.40
2019-02-17T22:20:07.025Z,81.02
2019-02-17T22:22:32.780Z,80.96
2019-02-17T22:24:58.563Z,80.96
2019-02-17T22:27:24.322Z,81.23
2019-02-17T22:29:50.083Z,81.66
2019-02-17T22:32:15.855Z,81.83
2019-02-17T22:34:41.608Z,81.62
2019-02-17T22:37:07.365Z,81.84
2019-02-17T22:39:33.121Z,81.97
2019-02-17T22:41:58.900Z,82.12
2019-02-17T22:44:24.668Z,82.52
2019-02-17T22:46:50.440Z,82.37
2019-02-17T22:49:17.018Z,82.34
2019-02-17T22:51:42.807Z,82.20
2019-02-17T22:54:08.559Z,82.57
2019-02-17T22:56:34.325Z,82.42
2019-02-17T22:59:00.079Z,82.40
2019-02-17T23:01:26.851Z,82.50
2019-02-17T23:03:52.602Z,82.42
2019-02-17T23:06:18.362Z,82.75
2019-02-17T23:08:44.122Z,82.99
2019-02-17T23:11:09.898Z,83.23
2019-02-17T23:13:35.657Z,83.23
2019-02-17T23:16:01.434Z,83.35
2019-02-17T23:18:27.184Z,83.81
2019-02-17T23:20:53.032Z,83.43
2019-02-17T23:23:18.788Z,83.26
2019-02-17T23:25:44.541Z,83.27
2019-02-17T23:28:10.300Z,83.25
2019-02-17T23:30:36.058Z,83.72
2019-02-17T23:33:01.837Z,83.56
2019-02-17T23:35:27.620Z,84.21
2019-02-17T23:37:53.440Z,84.21
2019-02-17T23:40:19.189Z,84.21
2019-02-17T23:42:44.978Z,84.26
2019-02-17T23:45:11.935Z,84.01
2019-02-17T23:47:37.701Z,83.90
2019-02-17T23:50:05.546Z,84.00
2019-02-17T23:52:31.313Z,84.19
2019-02-17T23:54:57.067Z,84.13
2019-02-17T23:57:22.838Z,84.36
2019-02-17T23:59:48.593Z,84.61
